createdAt,value
2023-02-01T00:01:30.214Z,8.43
2023-02-01T00:04:00.166Z,8.02
2023-02-01T00:06:28.445Z,7.70
2023-02-01T00:08:57.799Z,6.57
2023-02-01T00:11:26.569Z,7.88
2023-02-01T00:13:55.959Z,7.68
2023-02-01T00:16:26.165Z,7.72
2023-02-01T00:19:01.233Z,8.55
2023-02-01T00:21:30.450Z,9.30
2023-02-01T00:23:59.369Z,9.10
2023-02-01T00:26:33.055Z,9.02
2023-02-01T00:31:30.195Z,8.55
2023-02-01T00:33:58.754Z,8.13
2023-02-01T00:36:28.903Z,8.00
2023-02-01T00:38:57.088Z,6.72
2023-02-01T00:41:26.138Z,6.78
2023-02-01T00:43:54.565Z,6.68
2023-02-01T00:46:23.456Z,6.45
2023-02-01T00:48:52.535Z,5.82
2023-02-01T00:51:23.962Z,6.10
2023-02-01T00:53:54.001Z,5.90
2023-02-01T00:56:22.436Z,5.80
2023-02-01T00:58:50.670Z,6.32
2023-02-01T01:01:21.797Z,5.57
2023-02-01T01:03:51.776Z,5.78
2023-02-01T01:06:23.478Z,6.20
2023-02-01T01:08:55.104Z,6.07
2023-02-01T01:11:25.699Z,5.25
2023-02-01T01:13:55.604Z,5.90
2023-02-01T01:16:25.965Z,7.22
2023-02-01T01:18:54.788Z,6.30
2023-02-01T01:21:23.041Z,6.03
2023-02-01T01:23:51.562Z,6.47
2023-02-01T01:26:23.905Z,6.65
2023-02-01T01:28:52.475Z,6.32
2023-02-01T01:31:22.134Z,6.45
2023-02-01T01:33:52.264Z,6.13
2023-02-01T01:36:21.096Z,6.25
2023-02-01T01:38:50.249Z,6.15
2023-02-01T01:41:23.186Z,6.70
2023-02-01T01:43:54.436Z,6.50
2023-02-01T01:46:25.279Z,5.65
2023-02-01T01:48:59.266Z,4.93
2023-02-01T01:51:30.152Z,5.70
2023-02-01T01:54:03.718Z,5.03
2023-02-01T01:56:35.096Z,5.80
2023-02-01T01:59:04.649Z,5.05
2023-02-01T02:01:33.135Z,5.75
2023-02-01T02:04:02.394Z,5.20
2023-02-01T02:06:39.188Z,5.53
2023-02-01T02:09:07.968Z,4.55
2023-02-01T02:11:37.881Z,6.10
2023-02-01T02:14:07.745Z,5.60
2023-02-01T02:16:56.904Z,4.72
2023-02-01T02:19:37.988Z,4.72
2023-02-01T02:22:26.045Z,4.90
2023-02-01T02:25:31.105Z,5.25
2023-02-01T02:28:12.055Z,5.60
2023-02-01T02:31:28.562Z,4.95
2023-02-01T02:34:05.590Z,4.53
2023-02-01T02:36:41.284Z,4.63
2023-02-01T02:39:18.854Z,4.88
2023-02-01T02:42:13.462Z,5.07
2023-02-01T02:45:06.660Z,4.55
2023-02-01T02:47:41.843Z,4.57
2023-02-01T02:50:38.172Z,4.97
2023-02-01T02:53:30.007Z,4.60
2023-02-01T02:56:17.341Z,4.50
2023-02-01T02:59:04.793Z,4.93
2023-02-01T03:01:52.299Z,3.80
2023-02-01T03:04:21.152Z,4.75
2023-02-01T03:06:50.924Z,4.82
2023-02-01T03:09:24.996Z,4.13
2023-02-01T03:12:16.247Z,4.97
2023-02-01T03:14:49.466Z,4.38
2023-02-01T03:17:23.837Z,4.68
2023-02-01T03:19:55.167Z,4.63
2023-02-01T03:22:28.969Z,5.03
2023-02-01T03:25:00.740Z,5.05
2023-02-01T03:27:34.592Z,4.80
2023-02-01T03:30:10.931Z,5.30
2023-02-01T03:32:55.800Z,4.55
2023-02-01T03:35:30.291Z,3.90
2023-02-01T03:38:08.690Z,4.70
2023-02-01T03:40:38.967Z,4.55
2023-02-01T03:43:14.261Z,5.22
2023-02-01T03:45:46.466Z,4.85
2023-02-01T03:48:16.802Z,4.40
2023-02-01T03:50:51.746Z,4.78
2023-02-01T03:53:24.614Z,4.20
2023-02-01T03:55:54.803Z,4.60
2023-02-01T03:58:24.973Z,4.05
2023-02-01T04:00:55.969Z,4.15
2023-02-01T04:03:25.931Z,4.55
2023-02-01T04:05:55.011Z,4.80
2023-02-01T04:08:26.319Z,5.10
2023-02-01T04:10:54.579Z,4.22
2023-02-01T04:13:22.847Z,5.47
2023-02-01T04:15:51.895Z,4.50
2023-02-01T04:18:20.239Z,4.22
2023-02-01T04:20:48.433Z,4.50
2023-02-01T04:23:17.374Z,4.30
2023-02-01T04:25:46.971Z,4.13
2023-02-01T04:28:15.302Z,4.10
2023-02-01T04:30:43.847Z,4.93
2023-02-01T04:33:14.967Z,4.50
2023-02-01T04:35:43.409Z,4.07
2023-02-01T04:38:12.063Z,4.32
2023-02-01T04:40:40.272Z,4.35
2023-02-01T04:43:10.204Z,4.05
2023-02-01T04:45:38.744Z,4.70
2023-02-01T04:48:07.737Z,4.03
2023-02-01T04:50:35.991Z,4.45
2023-02-01T04:53:04.546Z,4.55
2023-02-01T04:55:32.854Z,4.88
2023-02-01T04:58:01.102Z,4.22
2023-02-01T05:00:31.128Z,4.38
2023-02-01T05:02:59.316Z,4.57
2023-02-01T05:05:28.854Z,4.13
2023-02-01T05:07:57.872Z,4.85
2023-02-01T05:10:26.198Z,4.32
2023-02-01T05:13:12.260Z,4.25
2023-02-01T05:15:42.115Z,4.07
2023-02-01T05:18:10.399Z,3.80
2023-02-01T05:20:38.704Z,4.40
2023-02-01T05:23:07.342Z,4.57
2023-02-01T05:25:35.611Z,4.47
2023-02-01T05:28:04.069Z,4.50
2023-02-01T05:30:33.555Z,4.20
2023-02-01T05:33:03.245Z,4.95
2023-02-01T05:35:31.753Z,4.88
2023-02-01T05:38:00.173Z,5.13
2023-02-01T05:40:28.348Z,4.82
2023-02-01T05:42:56.788Z,4.85
2023-02-01T05:45:25.306Z,4.30
2023-02-01T05:47:53.745Z,4.72
2023-02-01T05:50:23.676Z,4.32
2023-02-01T05:52:52.201Z,3.85
2023-02-01T05:55:20.397Z,4.13
2023-02-01T05:57:48.686Z,5.20
2023-02-01T06:00:17.482Z,4.60
2023-02-01T06:02:45.877Z,4.35
2023-02-01T06:05:14.168Z,4.57
2023-02-01T06:07:43.919Z,5.05
2023-02-01T06:10:12.740Z,4.30
2023-02-01T06:12:41.345Z,4.57
2023-02-01T06:15:10.696Z,13.45
2023-02-01T06:17:39.531Z,4.53
2023-02-01T06:20:10.575Z,4.53
2023-02-01T06:22:40.306Z,4.57
2023-02-01T06:25:12.304Z,4.68
2023-02-01T06:27:40.553Z,4.70
2023-02-01T06:30:10.175Z,4.68
2023-02-01T06:32:38.508Z,4.53
2023-02-01T06:35:08.697Z,4.22
2023-02-01T06:37:38.925Z,4.90
2023-02-01T06:40:10.254Z,5.22
2023-02-01T06:42:38.649Z,5.43
2023-02-01T06:45:08.283Z,5.50
2023-02-01T06:47:36.687Z,5.00
2023-02-01T06:50:05.525Z,5.25
2023-02-01T06:52:33.723Z,4.57
2023-02-01T06:55:02.099Z,4.28
2023-02-01T06:57:34.150Z,4.68
2023-02-01T07:00:02.497Z,5.70
2023-02-01T07:02:31.520Z,4.93
2023-02-01T07:04:59.758Z,5.07
2023-02-01T07:07:27.998Z,4.60
2023-02-01T07:09:56.584Z,5.30
2023-02-01T07:12:25.358Z,5.15
2023-02-01T07:14:55.023Z,5.13
2023-02-01T07:17:23.664Z,4.60
2023-02-01T07:19:51.938Z,4.90
2023-02-01T07:22:20.244Z,5.30
2023-02-01T07:24:48.740Z,5.10
2023-02-01T07:27:16.890Z,4.80
2023-02-01T07:29:45.174Z,4.70
2023-02-01T07:32:15.197Z,4.70
2023-02-01T07:34:43.378Z,4.68
2023-02-01T07:37:11.792Z,5.07
2023-02-01T07:39:40.092Z,4.97
2023-02-01T07:42:08.716Z,4.65
2023-02-01T07:44:37.122Z,4.45
2023-02-01T07:47:05.527Z,4.30
2023-02-01T07:49:35.158Z,4.88
2023-02-01T07:52:03.461Z,5.38
2023-02-01T07:54:31.865Z,4.30
2023-02-01T07:57:00.116Z,4.70
2023-02-01T07:59:28.462Z,5.15
2023-02-01T08:01:55.976Z,4.22
2023-02-01T08:04:24.220Z,4.57
2023-02-01T08:06:53.763Z,4.38
2023-02-01T08:09:22.140Z,5.00
2023-02-01T08:11:50.348Z,4.05
2023-02-01T08:14:18.582Z,4.85
2023-02-01T08:16:47.306Z,4.63
2023-02-01T08:19:15.584Z,4.55
2023-02-01T08:21:43.783Z,4.68
2023-02-01T08:24:13.889Z,4.40
2023-02-01T08:26:42.131Z,4.05
2023-02-01T08:29:12.547Z,4.68
2023-02-01T08:31:43.142Z,4.90
2023-02-01T08:34:13.082Z,4.55
2023-02-01T08:36:41.963Z,4.97
2023-02-01T08:39:14.471Z,4.47
2023-02-01T08:42:03.499Z,4.63
2023-02-01T08:44:31.883Z,4.68
2023-02-01T08:47:00.376Z,4.72
2023-02-01T08:49:28.761Z,5.13
2023-02-01T08:52:00.980Z,4.45
2023-02-01T08:54:33.619Z,4.80
2023-02-01T08:57:02.108Z,4.65
2023-02-01T08:59:30.487Z,5.15
2023-02-01T09:01:58.986Z,4.80
2023-02-01T09:04:27.468Z,4.82
2023-02-01T09:06:56.824Z,4.25
2023-02-01T09:09:25.491Z,3.88
2023-02-01T09:11:55.156Z,4.43
2023-02-01T09:14:23.413Z,4.15
2023-02-01T09:16:51.857Z,4.68
2023-02-01T09:19:26.390Z,4.82
2023-02-01T09:21:55.346Z,4.50
2023-02-01T09:24:24.102Z,4.45
2023-02-01T09:26:54.422Z,4.00
2023-02-01T09:29:22.660Z,4.70
2023-02-01T09:32:02.935Z,3.80
2023-02-01T09:34:32.301Z,4.68
2023-02-01T09:37:01.089Z,4.03
2023-02-01T09:39:31.022Z,4.43
2023-02-01T09:42:18.749Z,4.45
2023-02-01T09:44:59.414Z,4.22
2023-02-01T09:47:28.837Z,4.10
2023-02-01T09:50:02.130Z,4.35
2023-02-01T09:52:37.334Z,4.10
2023-02-01T09:55:09.776Z,3.97
2023-02-01T09:57:50.523Z,4.28
2023-02-01T10:00:23.903Z,4.65
2023-02-01T10:02:53.754Z,3.95
2023-02-01T10:05:33.710Z,4.65
2023-02-01T10:08:09.386Z,4.80
2023-02-01T10:10:42.894Z,3.55
2023-02-01T10:13:25.403Z,4.13
2023-02-01T10:16:05.356Z,3.55
2023-02-01T10:19:02.398Z,3.25
2023-02-01T10:21:43.058Z,3.10
2023-02-01T10:24:38.474Z,3.83
2023-02-01T10:27:16.044Z,4.40
2023-02-01T10:29:47.867Z,4.53
2023-02-01T10:32:18.030Z,3.85
2023-02-01T10:34:51.276Z,3.83
2023-02-01T10:37:32.270Z,3.53
2023-02-01T10:40:04.214Z,3.40
2023-02-01T10:42:33.793Z,3.97
2023-02-01T10:45:06.252Z,3.83
2023-02-01T10:47:34.624Z,3.40
2023-02-01T10:50:16.854Z,3.83
2023-02-01T10:52:50.395Z,3.53
2023-02-01T10:55:40.772Z,2.88
2023-02-01T10:58:17.823Z,3.55
2023-02-01T11:00:50.609Z,3.17
2023-02-01T11:03:38.252Z,2.87
2023-02-01T11:06:15.925Z,3.10
2023-02-01T11:08:50.250Z,2.92
2023-02-01T11:11:20.149Z,3.08
2023-02-01T11:13:55.379Z,2.90
2023-02-01T11:16:32.451Z,3.10
2023-02-01T11:19:01.120Z,3.47
2023-02-01T11:21:30.061Z,2.97
2023-02-01T11:24:03.792Z,3.08
2023-02-01T11:29:06.277Z,2.58
2023-02-01T11:31:37.182Z,3.20
2023-02-01T11:34:10.716Z,2.75
2023-02-01T11:36:40.853Z,2.88
2023-02-01T11:39:25.604Z,2.67
2023-02-01T11:42:05.690Z,2.50
2023-02-01T11:44:37.355Z,3.05
2023-02-01T11:47:25.390Z,2.85
2023-02-01T11:49:55.729Z,2.42
2023-02-01T11:52:44.314Z,2.22
2023-02-01T11:55:31.841Z,1.90
2023-02-01T11:58:22.957Z,2.60
2023-02-01T12:01:12.120Z,2.17
2023-02-01T12:04:25.093Z,2.50
2023-02-01T12:06:58.001Z,2.47
2023-02-01T12:09:55.857Z,2.38
2023-02-01T12:12:31.989Z,2.13
2023-02-01T12:15:18.330Z,2.00
2023-02-01T12:18:08.847Z,2.10
2023-02-01T12:21:01.239Z,2.33
2023-02-01T12:23:45.908Z,2.20
2023-02-01T12:26:36.386Z,2.30
2023-02-01T12:29:20.878Z,2.50
2023-02-01T12:32:06.743Z,2.38
2023-02-01T12:35:09.315Z,1.77
2023-02-01T12:37:56.730Z,2.10
2023-02-01T12:40:42.179Z,2.42
2023-02-01T12:43:18.359Z,2.28
2023-02-01T12:45:52.451Z,2.80
2023-02-01T12:48:34.111Z,2.05
2023-02-01T12:51:06.984Z,2.10
2023-02-01T12:53:47.050Z,2.08
2023-02-01T12:56:24.423Z,2.50
2023-02-01T12:58:56.831Z,2.33
2023-02-01T13:01:30.104Z,3.13
2023-02-01T13:04:07.126Z,1.90
2023-02-01T13:06:40.110Z,2.70
2023-02-01T13:09:21.304Z,2.92
2023-02-01T13:11:54.278Z,1.83
2023-02-01T13:14:31.143Z,2.33
2023-02-01T13:17:04.624Z,2.55
2023-02-01T13:19:39.337Z,2.47
2023-02-01T13:22:13.091Z,1.75
2023-02-01T13:27:15.010Z,2.50
2023-02-01T13:29:50.351Z,2.30
2023-02-01T13:33:50.435Z,2.20
2023-02-01T13:39:00.184Z,2.13
2023-02-01T13:41:34.456Z,2.20
2023-02-01T13:44:08.049Z,2.72
2023-02-01T13:46:43.163Z,2.25
2023-02-01T13:49:22.340Z,2.22
2023-02-01T13:51:53.731Z,2.25
2023-02-01T13:54:31.339Z,2.47
2023-02-01T13:57:01.197Z,2.50
2023-02-01T13:59:52.926Z,2.70
2023-02-01T14:02:50.655Z,2.50
2023-02-01T14:06:01.611Z,3.08
2023-02-01T14:08:43.460Z,2.58
2023-02-01T14:11:37.604Z,2.20
2023-02-01T14:14:39.128Z,2.35
2023-02-01T14:17:40.115Z,1.63
2023-02-01T14:20:46.455Z,2.05
2023-02-01T14:23:20.021Z,3.67
2023-02-01T14:26:02.825Z,2.30
2023-02-01T14:28:32.759Z,2.75
2023-02-01T14:31:01.523Z,3.20
2023-02-01T14:33:30.606Z,2.80
2023-02-01T14:36:06.884Z,2.60
2023-02-01T14:38:39.677Z,2.55
2023-02-01T14:41:34.073Z,2.80
2023-02-01T14:44:34.451Z,2.75
2023-02-01T14:47:30.689Z,2.55
2023-02-01T14:50:20.927Z,2.50
2023-02-01T14:52:52.403Z,2.65
2023-02-01T14:55:29.479Z,2.88
2023-02-01T14:58:01.396Z,2.72
2023-02-01T15:00:31.845Z,2.70
2023-02-01T15:03:24.428Z,3.22
2023-02-01T15:05:58.277Z,2.67
2023-02-01T15:11:01.199Z,2.78
2023-02-01T15:13:31.191Z,2.80
2023-02-01T15:16:04.425Z,2.92
2023-02-01T15:18:33.765Z,3.40
2023-02-01T15:21:06.771Z,2.75
2023-02-01T15:23:39.054Z,3.50
2023-02-01T15:26:08.974Z,3.53
2023-02-01T15:28:37.740Z,3.25
2023-02-01T15:31:07.638Z,3.00
2023-02-01T15:33:35.996Z,3.97
2023-02-01T15:36:13.173Z,3.40
2023-02-01T15:38:42.978Z,3.05
2023-02-01T15:41:16.595Z,3.10
2023-02-01T15:43:49.230Z,3.47
2023-02-01T15:46:24.984Z,3.33
2023-02-01T15:48:55.759Z,4.10
2023-02-01T15:51:26.170Z,3.05
2023-02-01T15:53:58.703Z,3.83
2023-02-01T15:56:31.922Z,3.10
2023-02-01T15:59:03.019Z,3.70
2023-02-01T16:01:31.998Z,3.83
2023-02-01T16:04:18.323Z,3.30
2023-02-01T16:06:52.004Z,3.38
2023-02-01T16:11:55.862Z,3.58
2023-02-01T16:14:25.110Z,3.80
2023-02-01T16:16:53.712Z,3.55
2023-02-01T16:19:22.154Z,3.88
2023-02-01T16:21:50.585Z,3.90
2023-02-01T16:24:18.934Z,3.78
2023-02-01T16:26:47.177Z,3.80
2023-02-01T16:29:17.576Z,3.75
2023-02-01T16:31:45.864Z,3.47
2023-02-01T16:34:18.121Z,4.40
2023-02-01T16:36:52.998Z,4.15
2023-02-01T16:39:22.740Z,4.35
2023-02-01T16:41:51.215Z,4.07
2023-02-01T16:44:20.948Z,3.78
2023-02-01T16:46:50.316Z,4.38
2023-02-01T16:49:22.646Z,3.78
2023-02-01T16:51:53.890Z,4.55
2023-02-01T16:54:25.644Z,4.43
2023-02-01T16:56:55.423Z,4.85
2023-02-01T16:59:25.370Z,3.95
2023-02-01T17:01:53.771Z,4.22
2023-02-01T17:04:22.997Z,4.10
2023-02-01T17:06:51.542Z,4.22
2023-02-01T17:09:22.113Z,4.07
2023-02-01T17:11:50.408Z,4.25
2023-02-01T17:14:20.305Z,4.35
2023-02-01T17:16:51.673Z,3.83
2023-02-01T17:19:24.712Z,4.57
2023-02-01T17:21:56.665Z,3.75
2023-02-01T17:24:33.258Z,4.60
2023-02-01T17:27:07.620Z,5.07
2023-02-01T17:29:36.046Z,4.13
2023-02-01T17:32:06.798Z,4.95
2023-02-01T17:34:35.305Z,4.93
2023-02-01T17:37:04.050Z,4.25
2023-02-01T17:39:49.831Z,4.22
2023-02-01T17:42:18.427Z,4.82
2023-02-01T17:44:46.633Z,5.15
2023-02-01T17:47:16.367Z,5.57
2023-02-01T17:49:44.973Z,4.53
2023-02-01T17:52:18.530Z,5.00
2023-02-01T17:54:50.568Z,4.45
2023-02-01T17:57:18.850Z,4.47
2023-02-01T17:59:47.350Z,4.45
2023-02-01T18:02:21.906Z,4.40
2023-02-01T18:04:51.436Z,4.72
2023-02-01T18:07:19.888Z,5.93
2023-02-01T18:09:48.460Z,5.10
2023-02-01T18:12:21.953Z,4.45
2023-02-01T18:14:50.611Z,5.50
2023-02-01T18:17:20.963Z,5.32
2023-02-01T18:19:49.267Z,5.28
2023-02-01T18:22:19.440Z,4.70
2023-02-01T18:24:47.763Z,5.38
2023-02-01T18:27:15.981Z,5.25
2023-02-01T18:29:44.300Z,5.05
2023-02-01T18:32:12.665Z,4.85
2023-02-01T18:34:42.322Z,5.50
2023-02-01T18:37:10.843Z,4.53
2023-02-01T18:39:39.606Z,5.03
2023-02-01T18:42:07.900Z,5.53
2023-02-01T18:44:36.393Z,5.25
2023-02-01T18:47:04.659Z,5.88
2023-02-01T18:49:32.981Z,5.75
2023-02-01T18:52:02.766Z,6.03
2023-02-01T18:54:31.307Z,5.25
2023-02-01T18:56:59.847Z,5.88
2023-02-01T18:59:28.159Z,5.05
2023-02-01T19:01:56.539Z,6.03
2023-02-01T19:04:26.055Z,6.40
2023-02-01T19:06:55.592Z,5.28
2023-02-01T19:09:25.551Z,5.93
2023-02-01T19:11:53.774Z,5.55
2023-02-01T19:14:22.282Z,5.72
2023-02-01T19:16:51.727Z,6.00
2023-02-01T19:19:20.041Z,5.68
2023-02-01T19:21:48.553Z,5.72
2023-02-01T19:24:16.915Z,6.47
2023-02-01T19:26:46.565Z,6.25
2023-02-01T19:29:15.108Z,5.75
2023-02-01T19:31:46.517Z,5.32
2023-02-01T19:34:14.940Z,5.70
2023-02-01T19:36:43.911Z,5.47
2023-02-01T19:39:12.388Z,5.93
2023-02-01T19:41:40.653Z,5.13
2023-02-01T19:44:10.783Z,5.45
2023-02-01T19:46:39.398Z,5.45
2023-02-01T19:49:12.228Z,5.30
2023-02-01T19:51:42.795Z,6.03
2023-02-01T19:54:11.196Z,5.30
2023-02-01T19:56:39.849Z,5.57
2023-02-01T19:59:09.740Z,6.57
2023-02-01T20:01:38.224Z,5.72
2023-02-01T20:04:07.121Z,5.05
2023-02-01T20:06:39.619Z,6.03
2023-02-01T20:09:08.270Z,5.88
2023-02-01T20:11:36.702Z,6.50
2023-02-01T20:14:04.971Z,5.38
2023-02-01T20:16:34.658Z,6.10
2023-02-01T20:19:03.048Z,5.75
2023-02-01T20:21:31.267Z,5.07
2023-02-01T20:23:59.620Z,5.15
2023-02-01T20:26:29.568Z,6.07
2023-02-01T20:28:57.935Z,5.22
2023-02-01T20:31:28.883Z,6.50
2023-02-01T20:33:59.890Z,5.80
2023-02-01T20:36:29.812Z,5.30
2023-02-01T20:38:58.829Z,6.25
2023-02-01T20:41:27.847Z,4.88
2023-02-01T20:43:56.773Z,5.28
2023-02-01T20:46:25.492Z,5.20
2023-02-01T20:48:53.775Z,5.85
2023-02-01T20:51:23.491Z,5.50
2023-02-01T20:53:54.290Z,5.70
2023-02-01T20:56:23.258Z,6.03
2023-02-01T20:58:51.659Z,5.85
2023-02-01T21:01:20.381Z,5.63
2023-02-01T21:03:48.635Z,5.85
2023-02-01T21:06:16.962Z,5.75
2023-02-01T21:08:46.681Z,5.13
2023-02-01T21:11:16.408Z,5.32
2023-02-01T21:13:50.804Z,4.80
2023-02-01T21:16:21.770Z,6.00
2023-02-01T21:18:52.023Z,5.32
2023-02-01T21:21:20.717Z,4.85
2023-02-01T21:23:50.400Z,4.57
2023-02-01T21:26:22.083Z,5.35
2023-02-01T21:28:51.773Z,5.35
2023-02-01T21:31:22.291Z,5.05
2023-02-01T21:33:51.287Z,4.80
2023-02-01T21:36:20.031Z,4.32
2023-02-01T21:38:51.462Z,4.32
2023-02-01T21:41:38.231Z,4.40
2023-02-01T21:44:07.171Z,5.00
2023-02-01T21:46:35.389Z,4.65
2023-02-01T21:49:06.420Z,4.82
2023-02-01T21:51:38.129Z,5.22
2023-02-01T21:54:09.122Z,4.00
2023-02-01T21:56:38.160Z,4.40
2023-02-01T21:59:06.715Z,4.47
2023-02-01T22:01:35.286Z,4.68
2023-02-01T22:04:03.870Z,4.60
2023-02-01T22:06:33.400Z,4.13
2023-02-01T22:09:02.374Z,3.92
2023-02-01T22:11:32.770Z,4.28
2023-02-01T22:14:01.086Z,4.38
2023-02-01T22:16:31.606Z,4.22
2023-02-01T22:19:00.190Z,3.50
2023-02-01T22:21:28.588Z,4.53
2023-02-01T22:23:59.417Z,4.13
2023-02-01T22:26:28.755Z,4.22
2023-02-01T22:28:58.545Z,3.70
2023-02-01T22:31:26.914Z,4.03
2023-02-01T22:33:56.678Z,4.05
2023-02-01T22:36:25.354Z,4.25
2023-02-01T22:38:54.431Z,4.63
2023-02-01T22:41:22.765Z,4.00
2023-02-01T22:43:51.032Z,4.50
2023-02-01T22:46:23.057Z,3.88
2023-02-01T22:48:51.592Z,4.05
2023-02-01T22:51:22.159Z,4.13
2023-02-01T22:53:57.253Z,4.10
2023-02-01T22:56:26.972Z,4.15
2023-02-01T22:58:57.369Z,4.50
2023-02-01T23:01:27.613Z,3.60
2023-02-01T23:03:58.824Z,4.57
2023-02-01T23:06:27.842Z,3.75
2023-02-01T23:08:57.488Z,4.25
2023-02-01T23:11:28.024Z,4.55
2023-02-01T23:13:56.728Z,4.35
2023-02-01T23:16:26.385Z,4.38
2023-02-01T23:18:57.105Z,4.30
2023-02-01T23:21:25.768Z,3.95
2023-02-01T23:23:55.772Z,4.32
2023-02-01T23:26:25.918Z,4.70
2023-02-01T23:28:55.272Z,4.18
2023-02-01T23:31:25.443Z,4.03
2023-02-01T23:33:56.582Z,3.60
2023-02-01T23:36:26.670Z,4.40
2023-02-01T23:38:55.804Z,4.68
2023-02-01T23:41:27.549Z,4.15
2023-02-01T23:43:57.946Z,4.22
2023-02-01T23:46:27.601Z,4.85
2023-02-01T23:48:58.074Z,3.75
2023-02-01T23:51:26.974Z,4.63
2023-02-01T23:53:56.066Z,4.05
2023-02-01T23:56:26.404Z,4.38
2023-02-01T23:58:56.983Z,4.47
